createdAt,value
2023-05-09T00:01:59.619Z,16.38
2023-05-09T00:04:33.600Z,17.30
2023-05-09T00:07:10.524Z,14.98
2023-05-09T00:09:43.499Z,15.50
2023-05-09T00:12:10.603Z,16.13
2023-05-09T00:14:50.122Z,15.57
2023-05-09T00:17:17.392Z,16.58
2023-05-09T00:19:52.519Z,15.27
2023-05-09T00:22:26.251Z,17.02
2023-05-09T00:25:05.609Z,16.77
2023-05-09T00:27:32.401Z,16.33
2023-05-09T00:30:11.420Z,16.73
2023-05-09T00:32:46.578Z,14.50
2023-05-09T00:35:25.582Z,15.80
2023-05-09T00:37:55.025Z,16.02
2023-05-09T00:40:30.649Z,15.85
2023-05-09T00:43:06.527Z,16.45
2023-05-09T00:45:33.540Z,16.70
2023-05-09T00:48:06.799Z,16.27
2023-05-09T00:50:43.225Z,16.75
2023-05-09T00:53:18.900Z,16.38
2023-05-09T00:55:55.589Z,16.40
2023-05-09T00:58:35.072Z,16.10
2023-05-09T01:01:04.105Z,18.15
2023-05-09T01:03:38.651Z,18.05
2023-05-09T01:06:17.987Z,17.52
2023-05-09T01:09:14.513Z,17.83
2023-05-09T01:12:02.371Z,17.92
2023-05-09T01:14:52.598Z,17.80
2023-05-09T01:17:47.940Z,18.17
2023-05-09T01:20:30.522Z,17.02
2023-05-09T01:23:22.628Z,17.95
2023-05-09T01:26:14.461Z,18.40
2023-05-09T01:28:59.574Z,17.45
2023-05-09T01:31:38.190Z,18.05
2023-05-09T01:34:13.592Z,18.50
2023-05-09T01:36:51.597Z,17.60
2023-05-09T01:39:29.446Z,17.27
2023-05-09T01:42:09.767Z,17.90
2023-05-09T01:44:52.533Z,18.42
2023-05-09T01:47:21.327Z,18.00
2023-05-09T01:49:57.647Z,18.67
2023-05-09T01:52:36.189Z,18.73
2023-05-09T01:55:15.349Z,20.48
2023-05-09T01:57:52.544Z,20.15
2023-05-09T02:00:20.368Z,19.17
2023-05-09T02:02:56.500Z,20.45
2023-05-09T02:05:37.697Z,19.25
2023-05-09T02:08:05.345Z,20.27
2023-05-09T02:10:43.694Z,20.05
2023-05-09T02:13:13.679Z,20.70
2023-05-09T02:15:47.774Z,20.38
2023-05-09T02:18:21.829Z,19.85
2023-05-09T02:20:50.849Z,20.20
2023-05-09T02:23:24.611Z,20.40
2023-05-09T02:26:01.536Z,20.27
2023-05-09T02:28:37.601Z,20.30
2023-05-09T02:31:14.838Z,20.25
2023-05-09T02:33:53.655Z,20.50
2023-05-09T02:36:32.811Z,20.50
2023-05-09T02:39:00.358Z,19.13
2023-05-09T02:41:38.671Z,19.92
2023-05-09T02:44:14.801Z,19.95
2023-05-09T02:46:48.675Z,19.65
2023-05-09T02:49:26.849Z,20.00
2023-05-09T02:52:05.743Z,19.88
2023-05-09T02:54:33.144Z,21.15
2023-05-09T02:57:11.335Z,20.45
2023-05-09T02:59:47.658Z,20.42
2023-05-09T03:02:20.867Z,20.92
2023-05-09T03:04:52.857Z,20.67
2023-05-09T03:07:30.269Z,19.83
2023-05-09T03:09:59.550Z,20.23
2023-05-09T03:12:38.689Z,19.77
2023-05-09T03:15:16.788Z,20.45
2023-05-09T03:17:43.801Z,21.50
2023-05-09T03:20:20.398Z,22.33
2023-05-09T03:22:49.969Z,21.45
2023-05-09T03:25:23.769Z,20.55
2023-05-09T03:27:57.731Z,22.33
2023-05-09T03:30:24.823Z,21.50
2023-05-09T03:32:58.669Z,20.75
2023-05-09T03:35:36.695Z,20.77
2023-05-09T03:38:03.736Z,21.52
2023-05-09T03:40:40.835Z,22.33
2023-05-09T03:43:14.288Z,21.08
2023-05-09T03:45:47.806Z,21.45
2023-05-09T03:48:17.609Z,21.80
2023-05-09T03:50:51.648Z,21.45
2023-05-09T03:53:18.663Z,20.63
2023-05-09T03:55:52.778Z,21.55
2023-05-09T03:58:19.632Z,21.05
2023-05-09T04:00:53.701Z,22.05
2023-05-09T04:03:27.775Z,21.88
2023-05-09T04:05:57.129Z,22.45
2023-05-09T04:08:33.723Z,22.27
2023-05-09T04:11:03.549Z,22.40
2023-05-09T04:13:38.747Z,22.58
2023-05-09T04:16:06.077Z,21.95
2023-05-09T04:18:44.522Z,22.60
2023-05-09T04:21:11.426Z,23.42
2023-05-09T04:23:49.489Z,23.67
2023-05-09T04:26:24.745Z,23.88
2023-05-09T04:28:59.663Z,22.58
2023-05-09T04:31:26.872Z,22.80
2023-05-09T04:34:00.669Z,24.80
2023-05-09T04:36:28.143Z,22.30
2023-05-09T04:38:58.485Z,24.05
2023-05-09T04:41:37.799Z,23.08
2023-05-09T04:44:11.955Z,22.63
2023-05-09T04:46:48.689Z,22.88
2023-05-09T04:49:18.128Z,22.73
2023-05-09T04:51:56.828Z,23.67
2023-05-09T04:54:54.760Z,23.42
2023-05-09T04:57:33.633Z,22.52
2023-05-09T05:00:07.131Z,22.60
2023-05-09T05:02:42.009Z,23.83
2023-05-09T05:05:12.583Z,24.83
2023-05-09T05:07:52.741Z,23.13
2023-05-09T05:10:20.242Z,21.60
2023-05-09T05:12:55.965Z,23.35
2023-05-09T05:15:27.099Z,23.73
2023-05-09T05:18:00.793Z,23.48
2023-05-09T05:20:27.681Z,23.50
2023-05-09T05:23:18.132Z,22.90
2023-05-09T05:25:48.396Z,24.00
2023-05-09T05:28:24.866Z,23.33
2023-05-09T05:30:51.704Z,22.80
2023-05-09T05:33:24.691Z,23.58
2023-05-09T05:35:51.775Z,25.00
2023-05-09T05:38:24.719Z,24.52
2023-05-09T05:40:54.454Z,24.00
2023-05-09T05:43:40.149Z,27.02
2023-05-09T05:46:07.127Z,24.70
2023-05-09T05:48:40.938Z,24.25
2023-05-09T05:51:07.859Z,24.85
2023-05-09T05:53:44.371Z,26.13
2023-05-09T05:56:19.732Z,27.33
2023-05-09T05:58:46.794Z,25.58
2023-05-09T06:01:23.676Z,25.48
2023-05-09T06:03:56.161Z,26.85
2023-05-09T06:06:40.785Z,27.08
2023-05-09T06:09:07.792Z,26.77
2023-05-09T06:11:41.741Z,27.00
2023-05-09T06:14:08.614Z,28.35
2023-05-09T06:16:42.954Z,28.90
2023-05-09T06:19:09.918Z,29.27
2023-05-09T06:21:47.783Z,30.33
2023-05-09T06:24:27.586Z,28.55
2023-05-09T06:27:08.709Z,30.08
2023-05-09T06:29:40.158Z,30.27
2023-05-09T06:32:13.788Z,30.63
2023-05-09T06:34:55.064Z,31.10
2023-05-09T06:37:22.159Z,31.63
2023-05-09T06:39:55.746Z,37.05
2023-05-09T06:42:36.725Z,36.90
2023-05-09T06:48:14.772Z,33.25
2023-05-09T06:50:50.748Z,31.40
2023-05-09T06:53:30.326Z,33.60
2023-05-09T06:56:03.828Z,30.23
2023-05-09T06:58:30.711Z,30.48
2023-05-09T07:01:06.737Z,31.38
2023-05-09T07:03:33.613Z,31.23
2023-05-09T07:06:10.757Z,29.20
2023-05-09T07:08:37.501Z,28.85
2023-05-09T07:11:10.830Z,28.30
2023-05-09T07:13:40.210Z,29.48
2023-05-09T07:16:17.751Z,29.70
2023-05-09T07:18:51.766Z,28.20
2023-05-09T07:21:18.729Z,30.55
2023-05-09T07:23:51.780Z,26.75
2023-05-09T07:26:24.961Z,27.05
2023-05-09T07:28:58.752Z,27.83
2023-05-09T07:31:25.834Z,28.08
2023-05-09T07:33:58.757Z,28.17
2023-05-09T07:36:25.780Z,28.65
2023-05-09T07:38:59.822Z,27.27
2023-05-09T07:41:27.189Z,27.30
2023-05-09T07:44:06.839Z,25.92
2023-05-09T07:46:33.753Z,27.73
2023-05-09T07:49:06.764Z,27.33
2023-05-09T07:51:33.916Z,26.98
2023-05-09T07:54:09.412Z,27.08
2023-05-09T07:56:36.391Z,25.70
2023-05-09T07:59:09.725Z,27.80
2023-05-09T08:01:36.818Z,25.65
2023-05-09T08:04:12.098Z,27.20
2023-05-09T08:06:39.051Z,27.25
2023-05-09T08:09:12.758Z,27.55
2023-05-09T08:11:45.974Z,28.05
2023-05-09T08:14:18.797Z,27.63
2023-05-09T08:16:54.827Z,26.42
2023-05-09T08:19:23.829Z,27.08
2023-05-09T08:21:56.951Z,27.73
2023-05-09T08:24:23.799Z,26.73
2023-05-09T08:26:57.775Z,26.90
2023-05-09T08:29:30.805Z,26.70
2023-05-09T08:31:57.817Z,27.40
2023-05-09T08:34:31.891Z,27.58
2023-05-09T08:37:04.914Z,28.83
2023-05-09T08:39:32.063Z,28.30
2023-05-09T08:42:06.840Z,27.10
2023-05-09T08:44:39.989Z,27.40
2023-05-09T08:47:13.876Z,25.83
2023-05-09T08:49:47.767Z,26.02
2023-05-09T08:52:15.192Z,26.00
2023-05-09T08:54:48.748Z,27.58
2023-05-09T08:57:15.985Z,27.55
2023-05-09T08:59:49.845Z,28.60
2023-05-09T09:02:16.792Z,26.48
2023-05-09T09:04:51.911Z,29.70
2023-05-09T09:07:22.216Z,25.88
2023-05-09T09:09:55.876Z,28.75
2023-05-09T09:12:24.533Z,27.83
2023-05-09T09:15:01.830Z,28.50
2023-05-09T09:17:37.848Z,29.08
2023-05-09T09:20:15.964Z,29.08
2023-05-09T09:22:49.825Z,28.17
2023-05-09T09:25:17.435Z,29.63
2023-05-09T09:27:50.795Z,30.45
2023-05-09T09:30:24.856Z,29.20
2023-05-09T09:32:52.264Z,32.00
2023-05-09T09:35:27.001Z,31.70
2023-05-09T09:38:05.857Z,31.77
2023-05-09T09:40:32.635Z,33.17
2023-05-09T09:43:05.860Z,34.78
2023-05-09T09:45:32.752Z,36.58
2023-05-09T09:48:13.029Z,37.17
2023-05-09T09:50:40.054Z,38.97
2023-05-09T09:53:14.024Z,40.63
2023-05-09T09:55:50.467Z,40.83
2023-05-09T09:58:25.882Z,41.22
2023-05-09T10:01:14.121Z,44.25
2023-05-09T10:03:50.121Z,46.60
2023-05-09T10:06:17.610Z,46.35
2023-05-09T10:08:53.868Z,45.85
2023-05-09T10:11:21.659Z,47.63
2023-05-09T10:13:54.987Z,46.92
2023-05-09T10:16:42.649Z,46.90
2023-05-09T10:19:11.942Z,47.70
2023-05-09T10:21:46.827Z,50.75
2023-05-09T10:24:14.820Z,49.10
2023-05-09T10:26:52.962Z,50.63
2023-05-09T10:29:25.655Z,50.92
2023-05-09T10:32:05.046Z,49.25
2023-05-09T10:34:35.060Z,48.42
2023-05-09T10:37:08.915Z,50.47
2023-05-09T10:39:37.190Z,50.80
2023-05-09T10:42:11.871Z,50.17
2023-05-09T10:44:46.862Z,48.90
2023-05-09T10:47:21.956Z,54.28
2023-05-09T10:49:50.027Z,53.17
2023-05-09T10:52:23.828Z,49.85
2023-05-09T10:55:08.216Z,48.30
2023-05-09T10:57:46.068Z,47.83
2023-05-09T11:00:13.639Z,49.47
2023-05-09T11:03:15.052Z,48.17
2023-05-09T11:05:42.568Z,47.75
2023-05-09T11:08:35.897Z,48.95
2023-05-09T11:11:22.669Z,47.83
2023-05-09T11:13:55.900Z,47.20
2023-05-09T11:16:28.930Z,46.72
2023-05-09T11:18:56.160Z,45.95
2023-05-09T11:21:29.936Z,48.90
2023-05-09T11:23:59.904Z,47.70
2023-05-09T11:26:36.928Z,45.42
2023-05-09T11:29:06.888Z,40.92
2023-05-09T11:31:40.085Z,34.22
2023-05-09T11:34:09.548Z,29.83
2023-05-09T11:36:43.967Z,27.25
2023-05-09T11:39:11.825Z,24.45
2023-05-09T11:41:53.920Z,24.63
2023-05-09T11:44:28.172Z,25.75
2023-05-09T11:47:01.940Z,23.20
2023-05-09T11:49:30.058Z,22.63
2023-05-09T11:52:07.018Z,22.35
2023-05-09T11:54:33.981Z,18.77
2023-05-09T11:57:06.928Z,16.55
2023-05-09T11:59:34.873Z,16.95
2023-05-09T12:02:15.040Z,13.18
2023-05-09T12:04:42.177Z,11.70
2023-05-09T12:07:12.170Z,11.55
2023-05-09T12:09:46.217Z,11.55
2023-05-09T12:12:13.986Z,12.88
2023-05-09T12:14:47.891Z,12.20
2023-05-09T12:17:21.004Z,11.75
2023-05-09T12:19:55.006Z,12.13
2023-05-09T12:22:22.364Z,12.02
2023-05-09T12:24:56.082Z,11.95
2023-05-09T12:27:23.880Z,11.32
2023-05-09T12:29:56.995Z,11.82
2023-05-09T12:32:24.342Z,10.73
2023-05-09T12:34:59.093Z,11.38
2023-05-09T12:37:26.218Z,10.68
2023-05-09T12:40:12.263Z,12.98
2023-05-09T12:43:03.971Z,14.43
2023-05-09T12:45:40.015Z,13.68
2023-05-09T12:48:16.106Z,14.10
2023-05-09T12:50:53.950Z,14.02
2023-05-09T12:53:30.931Z,14.40
2023-05-09T12:56:10.928Z,16.20
2023-05-09T12:58:37.979Z,15.43
2023-05-09T13:01:06.503Z,15.52
2023-05-09T13:03:44.980Z,14.88
2023-05-09T13:06:19.958Z,15.60
2023-05-09T13:08:57.715Z,16.83
2023-05-09T13:11:31.046Z,16.33
2023-05-09T13:14:04.939Z,14.95
2023-05-09T13:16:31.991Z,15.57
2023-05-09T13:19:05.050Z,15.65
2023-05-09T13:21:32.826Z,16.00
2023-05-09T13:24:06.032Z,15.55
2023-05-09T13:26:33.179Z,16.05
2023-05-09T13:29:07.217Z,16.77
2023-05-09T13:31:34.071Z,16.27
2023-05-09T13:34:07.034Z,17.08
2023-05-09T13:36:34.128Z,15.95
2023-05-09T13:39:07.988Z,17.20
2023-05-09T13:41:40.987Z,15.57
2023-05-09T13:44:15.128Z,16.45
2023-05-09T13:46:49.199Z,16.30
2023-05-09T13:49:16.070Z,15.95
2023-05-09T13:51:49.003Z,16.45
2023-05-09T13:54:25.226Z,15.98
2023-05-09T13:56:59.093Z,16.02
2023-05-09T13:59:26.077Z,15.10
2023-05-09T14:01:59.130Z,15.98
2023-05-09T14:04:27.449Z,16.38
2023-05-09T14:07:01.962Z,15.90
2023-05-09T14:09:38.371Z,14.93
2023-05-09T14:12:13.516Z,15.63
2023-05-09T14:14:42.335Z,16.70
2023-05-09T14:17:16.114Z,15.70
2023-05-09T14:19:42.995Z,16.27
2023-05-09T14:22:16.267Z,15.30
2023-05-09T14:24:43.615Z,14.50
2023-05-09T14:27:10.554Z,14.63
2023-05-09T14:29:46.021Z,14.05
2023-05-09T14:32:13.352Z,14.05
2023-05-09T14:34:47.061Z,15.07
2023-05-09T14:37:21.105Z,15.55
2023-05-09T14:39:49.608Z,15.23
2023-05-09T14:42:23.103Z,14.57
2023-05-09T14:45:03.011Z,14.20
2023-05-09T14:47:43.141Z,14.45
2023-05-09T14:50:16.106Z,14.70
2023-05-09T14:52:50.985Z,14.23
2023-05-09T14:55:19.897Z,14.57
2023-05-09T14:57:53.045Z,15.55
2023-05-09T15:00:22.340Z,15.30
2023-05-09T15:02:57.512Z,13.73
2023-05-09T15:05:31.092Z,14.55
2023-05-09T15:07:57.924Z,13.60
2023-05-09T15:10:31.115Z,13.10
2023-05-09T15:13:05.740Z,12.95
2023-05-09T15:15:32.839Z,13.13
2023-05-09T15:18:08.146Z,12.65
2023-05-09T15:20:35.626Z,12.18
2023-05-09T15:23:09.148Z,11.93
2023-05-09T15:25:42.095Z,10.73
2023-05-09T15:28:15.110Z,10.98
2023-05-09T15:30:49.144Z,13.32
2023-05-09T15:33:16.052Z,12.15
2023-05-09T15:35:51.123Z,11.02
2023-05-09T15:38:18.354Z,9.73
2023-05-09T15:40:52.090Z,9.85
2023-05-09T15:43:25.097Z,9.18
2023-05-09T15:46:05.046Z,9.20
2023-05-09T15:48:31.938Z,10.10
2023-05-09T15:51:05.082Z,9.60
2023-05-09T15:53:31.896Z,9.45
2023-05-09T15:56:05.116Z,9.75
2023-05-09T15:58:32.095Z,9.82
2023-05-09T16:01:05.122Z,9.65
2023-05-09T16:03:38.250Z,7.15
2023-05-09T16:06:12.093Z,5.22
2023-05-09T16:08:38.873Z,5.10
2023-05-09T16:11:05.739Z,5.30
2023-05-09T16:13:39.158Z,5.68
2023-05-09T16:16:06.446Z,5.38
2023-05-09T16:18:40.172Z,5.47
2023-05-09T16:21:06.963Z,5.80
2023-05-09T16:23:40.192Z,5.30
2023-05-09T16:26:07.361Z,5.95
2023-05-09T16:28:41.217Z,5.72
2023-05-09T16:31:08.820Z,5.60
2023-05-09T16:33:42.115Z,5.63
2023-05-09T16:36:09.095Z,5.47
2023-05-09T16:38:43.148Z,5.78
2023-05-09T16:41:09.913Z,5.85
2023-05-09T16:43:43.334Z,5.57
2023-05-09T16:46:16.605Z,5.65
2023-05-09T16:48:50.213Z,5.72
2023-05-09T16:51:20.025Z,5.55
2023-05-09T16:53:53.204Z,4.28
2023-05-09T16:56:20.181Z,4.32
2023-05-09T16:58:55.175Z,3.80
2023-05-09T17:01:22.379Z,3.17
2023-05-09T17:03:56.276Z,2.80
2023-05-09T17:06:29.187Z,2.80
2023-05-09T17:08:56.078Z,2.13
2023-05-09T17:11:32.785Z,2.00
2023-05-09T17:14:01.834Z,2.10
2023-05-09T17:16:37.355Z,2.03
2023-05-09T17:19:05.132Z,2.40
2023-05-09T17:21:39.135Z,2.60
2023-05-09T17:24:15.587Z,2.67
2023-05-09T17:26:50.056Z,2.80
2023-05-09T17:29:16.880Z,3.05
2023-05-09T17:31:50.110Z,2.55
2023-05-09T17:34:17.142Z,5.45
2023-05-09T17:36:50.135Z,3.00
2023-05-09T17:39:24.146Z,2.97
2023-05-09T17:41:51.269Z,2.72
2023-05-09T17:44:32.131Z,2.92
2023-05-09T17:46:59.202Z,3.00
2023-05-09T17:49:33.140Z,3.03
2023-05-09T17:52:00.600Z,2.65
2023-05-09T17:54:34.111Z,2.92
2023-05-09T17:57:02.492Z,3.00
2023-05-09T17:59:36.156Z,3.33
2023-05-09T18:02:09.176Z,3.10
2023-05-09T18:04:36.350Z,3.42
2023-05-09T18:07:10.288Z,3.30
2023-05-09T18:09:37.367Z,3.70
2023-05-09T18:12:19.435Z,3.70
2023-05-09T18:14:49.728Z,3.78
2023-05-09T18:17:23.536Z,3.90
2023-05-09T18:19:57.302Z,4.10
2023-05-09T18:22:33.164Z,4.07
2023-05-09T18:25:04.904Z,4.30
2023-05-09T18:27:38.098Z,4.55
2023-05-09T18:30:05.833Z,4.53
2023-05-09T18:32:41.307Z,4.00
2023-05-09T18:35:18.670Z,4.10
2023-05-09T18:37:48.638Z,4.60
2023-05-09T18:40:30.138Z,4.95
2023-05-09T18:43:15.317Z,4.07
2023-05-09T18:46:03.460Z,4.75
2023-05-09T18:48:43.030Z,4.07
2023-05-09T18:51:17.559Z,4.40
2023-05-09T18:53:50.910Z,4.70
2023-05-09T18:56:29.449Z,4.75
2023-05-09T18:58:58.648Z,4.68
2023-05-09T19:01:36.594Z,5.00
2023-05-09T19:04:05.173Z,4.55
2023-05-09T19:06:59.897Z,4.88
2023-05-09T19:09:30.432Z,4.70
2023-05-09T19:12:11.709Z,4.40
2023-05-09T19:14:41.605Z,4.68
2023-05-09T19:17:15.389Z,5.30
2023-05-09T19:19:52.238Z,5.10
2023-05-09T19:22:28.401Z,5.63
2023-05-09T19:25:05.402Z,5.78
2023-05-09T19:27:41.883Z,5.28
2023-05-09T19:30:18.092Z,5.35
2023-05-09T19:33:02.882Z,6.03
2023-05-09T19:35:40.774Z,6.50
2023-05-09T19:38:12.399Z,6.50
2023-05-09T19:40:48.469Z,6.05
2023-05-09T19:43:15.636Z,7.45
2023-05-09T19:45:57.517Z,7.03
2023-05-09T19:48:31.089Z,6.07
2023-05-09T19:51:07.456Z,6.32
2023-05-09T19:53:41.385Z,6.60
2023-05-09T19:56:22.233Z,6.28
2023-05-09T19:58:56.841Z,6.28
2023-05-09T20:01:34.944Z,6.05
2023-05-09T20:04:02.351Z,6.57
2023-05-09T20:06:37.732Z,7.35
2023-05-09T20:09:05.739Z,7.43
2023-05-09T20:11:43.347Z,6.82
2023-05-09T20:14:13.442Z,7.40
2023-05-09T20:16:42.502Z,7.63
2023-05-09T20:19:16.230Z,7.70
2023-05-09T20:21:56.192Z,8.15
2023-05-09T20:24:33.928Z,8.07
2023-05-09T20:27:22.296Z,8.20
2023-05-09T20:29:56.337Z,8.18
2023-05-09T20:32:29.490Z,7.72
2023-05-09T20:35:14.145Z,8.57
2023-05-09T20:37:45.615Z,8.85
2023-05-09T20:40:22.343Z,8.73
2023-05-09T20:42:59.436Z,8.32
2023-05-09T20:45:34.509Z,8.75
2023-05-09T20:48:14.222Z,8.80
2023-05-09T20:50:50.757Z,9.10
2023-05-09T20:53:17.994Z,9.40
2023-05-09T20:56:06.755Z,8.88
2023-05-09T20:58:39.289Z,9.23
2023-05-09T21:01:13.377Z,8.82
2023-05-09T21:03:40.958Z,9.63
2023-05-09T21:06:17.373Z,9.77
2023-05-09T21:08:47.210Z,9.52
2023-05-09T21:11:25.330Z,15.05
2023-05-09T21:14:02.679Z,10.75
2023-05-09T21:16:43.651Z,9.20
2023-05-09T21:19:11.424Z,9.93
2023-05-09T21:21:50.690Z,9.23
2023-05-09T21:24:19.955Z,10.23
2023-05-09T21:26:57.809Z,9.48
2023-05-09T21:29:26.453Z,10.18
2023-05-09T21:31:54.486Z,9.02
2023-05-09T21:34:34.911Z,9.65
2023-05-09T21:37:03.603Z,9.90
2023-05-09T21:39:53.417Z,9.90
2023-05-09T21:42:25.090Z,10.57
2023-05-09T21:45:02.110Z,10.15
2023-05-09T21:47:37.806Z,10.57
2023-05-09T21:50:13.006Z,10.60
2023-05-09T21:52:50.503Z,10.07
2023-05-09T21:55:25.168Z,10.52
2023-05-09T21:58:02.332Z,9.68
2023-05-09T22:00:43.531Z,10.85
2023-05-09T22:03:14.094Z,10.93
2023-05-09T22:06:03.311Z,10.73
2023-05-09T22:08:31.269Z,10.85
2023-05-09T22:11:08.579Z,9.85
2023-05-09T22:13:38.394Z,10.35
2023-05-09T22:16:14.482Z,10.57
2023-05-09T22:18:45.325Z,10.50
2023-05-09T22:21:28.521Z,9.68
2023-05-09T22:23:56.062Z,10.18
2023-05-09T22:26:30.942Z,9.93
2023-05-09T22:29:01.040Z,10.57
2023-05-09T22:31:38.648Z,10.25
2023-05-09T22:34:06.471Z,10.13
2023-05-09T22:36:40.613Z,11.05
2023-05-09T22:39:24.155Z,11.05
2023-05-09T22:41:58.785Z,9.90
2023-05-09T22:44:33.593Z,10.75
2023-05-09T22:47:12.196Z,9.80
2023-05-09T22:49:48.567Z,10.65
2023-05-09T22:52:23.581Z,10.48
2023-05-09T22:55:03.879Z,10.50
2023-05-09T22:57:39.640Z,10.20
2023-05-09T23:00:17.872Z,10.43
2023-05-09T23:02:48.728Z,10.52
2023-05-09T23:05:29.317Z,10.48
2023-05-09T23:07:59.441Z,10.77
2023-05-09T23:10:34.497Z,9.68
2023-05-09T23:13:02.202Z,9.10
2023-05-09T23:15:43.615Z,9.73
2023-05-09T23:18:15.530Z,9.52
2023-05-09T23:20:52.588Z,9.77
2023-05-09T23:23:20.039Z,9.93
2023-05-09T23:25:59.679Z,10.02
2023-05-09T23:28:28.476Z,10.30
2023-05-09T23:31:06.769Z,10.73
2023-05-09T23:33:50.367Z,10.43
2023-05-09T23:36:24.700Z,10.80
2023-05-09T23:38:58.718Z,10.95
2023-05-09T23:41:29.082Z,11.45
2023-05-09T23:44:21.219Z,12.13
2023-05-09T23:46:59.529Z,12.90
2023-05-09T23:49:36.683Z,13.13
2023-05-09T23:52:06.887Z,11.15
2023-05-09T23:54:40.525Z,9.20
2023-05-09T23:57:17.360Z,7.75
2023-05-09T23:59:55.824Z,6.03
